Time;durP1;ratioP1;P1;durP2;ratioP2;P2;SDS_P1;SDS_P2;PMS_P1;PMS_P2;Temp;Humidity;BMP_temperature;BMP_pressure;BME280_temperature;BME280_humidity;BME280_pressure;Samples;Min_cycle;Max_cycle;Signal;HPM_P1;HPM_P2
2022/01/15 00:03:10;;;;;;;8.50;2.37;;;;;;;2.80;79.57;101071.72;10460528;28;20546;-63
2022/01/15 00:08:15;;;;;;;7.10;2.33;;;;;;;2.85;79.38;101062.47;10459830;28;20561;-63
2022/01/15 00:13:25;;;;;;;8.97;2.27;;;;;;;2.86;79.66;101061.69;10460304;28;20299;-63
2022/01/15 00:18:40;;;;;;;11.53;2.23;;;;;;;2.80;80.43;101067.47;10460293;28;20221;-65
2022/01/15 00:23:45;;;;;;;8.17;1.90;;;;;;;2.70;81.46;101077.38;10459241;28;20227;-66
2022/01/15 00:28:48;;;;;;;8.43;2.77;;;;;;;2.72;81.59;101078.28;10459132;28;20224;-68
2022/01/15 00:33:52;;;;;;;8.13;2.40;;;;;;;2.75;81.30;101073.25;10458868;28;20663;-63
2022/01/15 00:38:56;;;;;;;8.00;2.60;;;;;;;2.76;81.20;101065.63;10459403;28;20532;-67
2022/01/15 00:44:00;;;;;;;8.23;2.97;;;;;;;2.69;81.53;101071.41;10459371;28;20239;-67
2022/01/15 00:49:03;;;;;;;11.07;2.47;;;;;;;2.72;81.75;101061.25;10459460;28;20704;-63
2022/01/15 00:54:08;;;;;;;10.03;2.03;;;;;;;2.60;82.74;101071.09;10459808;28;20542;-65
2022/01/15 00:59:11;;;;;;;9.43;1.80;;;;;;;2.65;81.84;101074.66;10457905;28;20569;-66
2022/01/15 01:04:15;;;;;;;10.00;1.70;;;;;;;2.64;82.64;101065.22;10456278;28;20216;-63
2022/01/15 01:09:20;;;;;;;7.70;2.17;;;;;;;2.54;83.59;101067.47;10457680;28;20574;-65
2022/01/15 01:25:09;;;;;;;11.30;2.30;;;;;;;2.54;83.15;101077.72;10458924;28;20231;-65
2022/01/15 01:30:17;;;;;;;9.87;2.17;;;;;;;2.40;83.81;101079.78;10458671;28;20231;-68
2022/01/15 01:35:33;;;;;;;15.40;3.17;;;;;;;2.44;84.29;101078.19;10458493;28;20217;-63
2022/01/15 01:40:41;;;;;;;6.60;2.30;;;;;;;2.41;85.02;101073.84;10458583;28;20222;-67
2022/01/15 01:45:49;;;;;;;9.97;2.20;;;;;;;2.34;85.80;101072.78;10458436;28;20562;-70
2022/01/15 01:50:53;;;;;;;13.83;2.13;;;;;;;2.29;85.81;101069.19;10457316;28;20212;-67
2022/01/15 01:55:58;;;;;;;12.40;2.53;;;;;;;2.29;87.12;101073.44;10458021;28;20558;-67
2022/01/15 02:01:01;;;;;;;16.43;3.73;;;;;;;2.15;89.78;101065.28;10457267;28;20216;-66
2022/01/15 02:06:06;;;;;;;9.57;2.40;;;;;;;2.18;89.46;101067.94;10457698;28;20232;-68
2022/01/15 02:11:11;;;;;;;9.53;2.23;;;;;;;2.21;89.91;101069.72;10462392;28;20213;-67
2022/01/15 02:16:16;;;;;;;8.80;2.00;;;;;;;2.30;89.67;101070.94;10465624;28;20704;-67
2022/01/15 02:26:42;;;;;;;10.53;2.30;;;;;;;2.13;91.87;101076.28;10465934;28;20415;-63
2022/01/15 02:31:45;;;;;;;9.20;2.73;;;;;;;2.08;92.42;101068.44;10464789;28;20216;-66
2022/01/15 02:36:50;;;;;;;10.47;2.77;;;;;;;2.00;93.94;101058.75;10463696;28;20666;-65
2022/01/15 02:41:53;;;;;;;11.43;2.33;;;;;;;2.00;94.06;101059.63;10464743;28;20225;-68
2022/01/15 02:52:20;;;;;;;5.50;1.40;;;;;;;2.03;94.60;101052.06;10464055;28;20212;-67
2022/01/15 02:57:23;;;;;;;13.37;2.63;;;;;;;1.97;95.20;101059.50;10463604;28;20273;-65
2022/01/15 03:02:31;;;;;;;11.30;2.63;;;;;;;1.98;94.91;101070.63;10462876;28;20217;-65
2022/01/15 03:07:36;;;;;;;7.07;2.63;;;;;;;1.97;95.30;101071.44;10463750;28;20224;-68
2022/01/15 03:12:39;;;;;;;10.17;2.13;;;;;;;1.88;95.78;101059.19;10463048;28;20217;-66
2022/01/15 03:17:43;;;;;;;7.60;2.13;;;;;;;1.95;94.98;101071.38;10462854;28;20216;-65
2022/01/15 03:22:47;;;;;;;7.47;1.63;;;;;;;1.98;95.08;101058.72;10461820;28;20662;-67
2022/01/15 03:27:51;;;;;;;11.63;2.03;;;;;;;1.96;95.10;101068.03;10462616;28;20247;-66
2022/01/15 03:32:54;;;;;;;7.40;1.73;;;;;;;1.93;95.36;101067.03;10461415;28;20247;-70
2022/01/15 03:37:59;;;;;;;10.50;2.37;;;;;;;1.83;96.68;101060.69;10461933;28;20235;-65
2022/01/15 03:43:04;;;;;;;12.20;2.23;;;;;;;1.75;97.16;101069.81;10461979;28;20216;-66
2022/01/15 03:48:07;;;;;;;8.83;2.30;;;;;;;1.75;97.67;101066.38;10461549;28;20225;-69
2022/01/15 03:53:12;;;;;;;7.00;2.00;;;;;;;1.42;100.00;101060.88;10461116;28;20213;-66
2022/01/15 03:58:15;;;;;;;8.70;2.50;;;;;;;1.61;99.30;101060.75;10461157;28;20708;-64
2022/01/15 04:03:18;;;;;;;9.97;2.47;;;;;;;1.62;98.88;101070.19;10461253;28;20219;-64
2022/01/15 04:08:23;;;;;;;9.93;1.63;;;;;;;1.66;98.50;101076.25;10460825;28;20315;-63
2022/01/15 04:13:26;;;;;;;12.40;2.20;;;;;;;1.67;98.55;101089.13;10461209;28;20231;-62
2022/01/15 04:18:36;;;;;;;12.33;2.40;;;;;;;1.70;98.51;101078.13;10460802;28;20235;-63
2022/01/15 04:23:40;;;;;;;12.23;2.80;;;;;;;1.54;99.52;101107.38;10460563;28;20213;-65
2022/01/15 04:28:43;;;;;;;10.53;2.70;;;;;;;1.44;100.00;101100.19;10459310;28;20239;-63
2022/01/15 04:33:47;;;;;;;10.50;3.63;;;;;;;1.43;100.00;101106.13;10459521;28;20217;-64
2022/01/15 04:38:51;;;;;;;10.97;3.13;;;;;;;1.38;100.00;101128.06;10459767;28;20227;-65
2022/01/15 04:43:54;;;;;;;11.23;2.50;;;;;;;1.34;100.00;101141.56;10459537;28;20221;-63
2022/01/15 04:48:58;;;;;;;13.07;3.43;;;;;;;1.22;100.00;101143.63;10459195;28;20243;-66
2022/01/15 04:54:03;;;;;;;14.57;3.17;;;;;;;1.13;100.00;101156.03;10459326;28;20217;-67
2022/01/15 04:59:06;;;;;;;12.60;3.73;;;;;;;1.02;100.00;101152.16;10459270;28;20235;-66
2022/01/15 05:04:09;;;;;;;10.37;2.93;;;;;;;1.14;100.00;101171.44;10458365;28;20223;-65
2022/01/15 05:09:14;;;;;;;12.57;3.40;;;;;;;1.09;100.00;101177.16;10458595;28;20229;-63
2022/01/15 05:14:18;;;;;;;14.67;4.23;;;;;;;1.17;100.00;101180.91;10458864;28;20217;-65
2022/01/15 05:19:22;;;;;;;15.60;3.67;;;;;;;1.22;100.00;101198.97;10458538;28;20637;-65
2022/01/15 05:24:29;;;;;;;13.33;2.80;;;;;;;1.13;100.00;101202.94;10458270;28;20547;-63
2022/01/15 05:29:32;;;;;;;13.43;4.57;;;;;;;1.17;100.00;101204.78;10458288;28;20224;-63
2022/01/15 05:34:35;;;;;;;12.37;3.20;;;;;;;1.19;100.00;101199.75;10458086;28;20216;-67
2022/01/15 05:39:40;;;;;;;9.17;3.27;;;;;;;0.93;100.00;101202.91;10458542;28;20229;-66
2022/01/15 05:44:44;;;;;;;15.40;3.27;;;;;;;0.98;100.00;101211.63;10462716;28;20227;-65
2022/01/15 05:49:47;;;;;;;11.50;2.80;;;;;;;1.18;100.00;101205.66;10466438;28;20231;-66
2022/01/15 05:54:51;;;;;;;9.97;2.83;;;;;;;1.12;100.00;101207.97;10466368;28;20216;-64
2022/01/15 05:59:55;;;;;;;12.97;3.60;;;;;;;1.10;100.00;101207.03;10466333;28;20224;-61
2022/01/15 06:04:58;;;;;;;9.23;2.50;;;;;;;1.12;100.00;101201.16;10465948;28;20213;-64
2022/01/15 06:10:03;;;;;;;9.03;2.53;;;;;;;1.21;100.00;101202.38;10465897;28;20224;-66
2022/01/15 06:15:08;;;;;;;16.67;6.77;;;;;;;1.00;100.00;101208.31;10465481;28;20709;-64
2022/01/15 06:20:13;;;;;;;8.13;2.80;;;;;;;0.95;100.00;101224.25;10465435;28;20682;-65
2022/01/15 06:25:18;;;;;;;9.97;2.30;;;;;;;1.02;100.00;101227.16;10465367;28;20217;-65
2022/01/15 06:30:21;;;;;;;8.90;3.07;;;;;;;0.97;100.00;101218.44;10464684;28;20232;-68
2022/01/15 06:35:24;;;;;;;13.17;3.13;;;;;;;1.05;100.00;101217.03;10464961;28;20213;-65
2022/01/15 06:40:29;;;;;;;6.57;2.27;;;;;;;1.07;100.00;101205.22;10464540;28;20317;-66
2022/01/15 06:45:33;;;;;;;12.37;3.03;;;;;;;1.06;100.00;101230.72;10464599;28;20679;-64
2022/01/15 06:50:37;;;;;;;12.37;2.93;;;;;;;1.02;100.00;101224.59;10464116;28;20221;-64
2022/01/15 06:55:42;;;;;;;10.10;2.30;;;;;;;1.05;100.00;101249.44;10463267;28;20224;-65
2022/01/15 07:00:46;;;;;;;7.53;2.20;;;;;;;1.11;100.00;101257.31;10463677;28;20217;-64
2022/01/15 07:05:50;;;;;;;7.93;2.77;;;;;;;1.01;100.00;101252.66;10463236;28;20246;-63
2022/01/15 07:10:54;;;;;;;9.03;2.13;;;;;;;0.98;100.00;101258.50;10496143;28;20576;-66
2022/01/15 07:15:57;;;;;;;16.53;2.70;;;;;;;0.99;100.00;101252.59;10499893;28;20208;-63
2022/01/15 07:21:01;;;;;;;10.93;3.30;;;;;;;0.98;100.00;101255.94;10497260;28;20273;-63
2022/01/15 07:26:06;;;;;;;10.47;2.57;;;;;;;1.08;100.00;101273.44;10503216;28;20287;-65
2022/01/15 07:31:11;;;;;;;11.60;3.20;;;;;;;1.18;100.00;101274.66;10500398;28;20212;-66
2022/01/15 07:36:15;;;;;;;12.30;2.83;;;;;;;1.19;100.00;101276.44;10502589;28;20220;-65
2022/01/15 07:41:20;;;;;;;8.93;2.47;;;;;;;1.22;100.00;101285.91;10496997;28;20733;-65
2022/01/15 07:46:23;;;;;;;10.73;2.40;;;;;;;1.29;100.00;101291.34;10478949;28;20217;-66
2022/01/15 07:51:27;;;;;;;12.47;2.93;;;;;;;1.18;100.00;101285.78;10478023;28;20230;-62
2022/01/15 07:56:31;;;;;;;14.57;2.90;;;;;;;1.28;100.00;101289.56;10502948;28;20676;-69
2022/01/15 08:01:34;;;;;;;10.17;3.17;;;;;;;1.41;100.00;101296.09;10502572;28;20560;-65
2022/01/15 08:06:39;;;;;;;11.93;2.97;;;;;;;1.32;100.00;101311.03;10501134;28;20753;-62
2022/01/15 08:11:43;;;;;;;14.53;3.53;;;;;;;1.26;100.00;101324.44;10480121;28;20230;-67
2022/01/15 08:16:47;;;;;;;12.13;3.70;;;;;;;1.32;100.00;101314.47;10460434;28;20665;-64
2022/01/15 08:21:50;;;;;;;15.13;3.50;;;;;;;1.45;100.00;101309.03;10460553;28;20227;-63
2022/01/15 08:26:54;;;;;;;11.93;2.60;;;;;;;1.49;100.00;101317.72;10460450;28;20220;-64
2022/01/15 08:31:58;;;;;;;9.83;3.50;;;;;;;1.56;100.00;101294.13;10480219;28;20634;-62
2022/01/15 08:37:01;;;;;;;11.00;3.30;;;;;;;1.60;100.00;101304.59;10498882;28;20212;-63
2022/01/15 08:42:09;;;;;;;11.40;3.17;;;;;;;1.71;100.00;101305.03;10467956;28;20224;-63
2022/01/15 08:47:12;;;;;;;12.77;3.60;;;;;;;1.86;100.00;101306.50;10459043;28;20217;-71
2022/01/15 08:52:15;;;;;;;10.13;2.60;;;;;;;1.92;100.00;101310.97;10469571;28;20230;-65
2022/01/15 08:57:20;;;;;;;13.53;2.67;;;;;;;2.03;100.00;101315.72;10494461;28;20519;-61
2022/01/15 09:02:23;;;;;;;12.03;2.83;;;;;;;2.29;100.00;101315.03;10500834;28;20224;-66
2022/01/15 09:07:27;;;;;;;17.43;3.97;;;;;;;2.61;99.93;101317.91;10499830;28;20236;-66
2022/01/15 09:12:31;;;;;;;12.37;3.13;;;;;;;2.77;97.47;101326.22;10499868;28;20222;-64
2022/01/15 09:17:55;;;;;;;9.70;2.43;;;;;;;2.90;96.01;101325.84;10502818;28;20222;-64
2022/01/15 09:22:58;;;;;;;11.30;3.30;;;;;;;2.92;96.22;101346.41;10514095;28;20238;-64
2022/01/15 09:33:24;;;;;;;13.93;3.87;;;;;;;3.12;94.37;101337.75;10503016;28;20211;-65
2022/01/15 09:38:27;;;;;;;13.63;3.33;;;;;;;3.00;95.17;101332.19;10510158;28;20303;-64
2022/01/15 09:43:32;;;;;;;9.30;3.17;;;;;;;3.35;95.24;101327.44;10511583;28;20557;-64
2022/01/15 09:48:39;;;;;;;11.67;2.80;;;;;;;3.57;91.54;101326.50;10510653;28;20790;-67
2022/01/15 09:53:43;;;;;;;13.77;2.77;;;;;;;3.66;90.93;101341.34;10513384;28;20212;-67
2022/01/15 09:58:47;;;;;;;10.13;2.70;;;;;;;3.91;89.93;101331.91;10471896;28;20703;-65
2022/01/15 10:03:51;;;;;;;12.20;3.13;;;;;;;4.11;90.26;101332.50;10472932;28;20200;-66
2022/01/15 10:09:01;;;;;;;9.77;3.07;;;;;;;4.00;88.37;101328.75;10471294;28;20237;-63
2022/01/15 10:14:23;;;;;;;9.43;2.70;;;;;;;4.29;87.68;101331.41;10471343;28;20197;-63
2022/01/15 10:19:32;;;;;;;23.93;8.27;;;;;;;4.58;87.33;101333.16;10499693;28;20496;-64
2022/01/15 10:24:36;;;;;;;6.80;2.57;;;;;;;4.61;85.03;101342.63;10481882;28;20217;-64
2022/01/15 10:29:41;;;;;;;9.27;2.83;;;;;;;4.43;84.51;101350.69;10479735;28;20221;-64
2022/01/15 10:34:45;;;;;;;13.10;2.70;;;;;;;4.40;83.91;101349.72;10469015;28;20211;-66
2022/01/15 10:40:02;;;;;;;13.20;2.57;;;;;;;4.48;83.01;101369.69;10467173;28;20300;-67
2022/01/15 10:45:10;;;;;;;36.87;14.27;;;;;;;4.15;85.46;101376.34;10474888;28;20538;-66
2022/01/15 10:50:21;;;;;;;11.50;3.00;;;;;;;4.30;83.98;101384.53;10483437;28;20215;-64
2022/01/15 10:55:27;;;;;;;15.43;2.97;;;;;;;4.28;83.96;101382.75;10490538;28;20296;-62
2022/01/15 11:00:39;;;;;;;10.97;2.90;;;;;;;4.34;84.98;101390.63;10464917;28;20272;-65
2022/01/15 11:05:45;;;;;;;11.10;2.57;;;;;;;4.36;84.48;101386.41;10491420;28;20340;-67
2022/01/15 11:10:51;;;;;;;10.43;2.27;;;;;;;4.89;83.83;101382.88;10500320;28;20676;-65
2022/01/15 11:15:58;;;;;;;8.83;3.07;;;;;;;5.03;81.42;101395.31;10498868;28;20456;-68
2022/01/15 11:21:03;;;;;;;13.67;3.30;;;;;;;4.78;82.53;101410.00;10498155;28;20192;-69
2022/01/15 11:26:09;;;;;;;11.30;2.90;;;;;;;4.74;83.17;101409.88;10503090;28;21596;-65
2022/01/15 11:31:20;;;;;;;8.80;3.23;;;;;;;4.60;83.73;101408.63;10500880;28;20289;-63
2022/01/15 11:36:31;;;;;;;11.67;3.40;;;;;;;4.47;82.69;101410.72;10500233;28;20276;-65
2022/01/15 11:41:38;;;;;;;11.50;2.73;;;;;;;4.35;83.66;101416.38;10479539;28;20239;-66
2022/01/15 11:46:48;;;;;;;10.37;2.80;;;;;;;4.36;83.92;101418.13;10472355;28;20196;-69
2022/01/15 11:51:51;;;;;;;11.97;3.37;;;;;;;4.40;84.18;101417.38;10461542;28;20295;-65
2022/01/15 11:56:54;;;;;;;13.20;4.00;;;;;;;4.54;83.32;101402.38;10495346;28;20632;-67
2022/01/15 12:02:01;;;;;;;9.17;3.20;;;;;;;4.62;82.08;101406.09;10501361;28;20273;-61
2022/01/15 12:07:18;;;;;;;9.60;3.20;;;;;;;4.80;82.38;101401.47;10496806;28;20219;-66
2022/01/15 12:12:44;;;;;;;12.93;3.43;;;;;;;5.69;78.31;101393.72;10495083;28;20560;-63
2022/01/15 12:17:54;;;;;;;12.03;3.90;;;;;;;6.35;74.78;101397.97;10498118;28;20243;-64
2022/01/15 12:22:59;;;;;;;11.40;3.83;;;;;;;6.74;74.16;101401.47;10500581;28;20235;-65
2022/01/15 12:28:05;;;;;;;10.80;2.93;;;;;;;6.56;73.79;101403.63;10500504;28;20223;-68
2022/01/15 12:33:13;;;;;;;8.80;2.93;;;;;;;6.85;73.87;101396.56;10500486;28;20234;-63
2022/01/15 12:38:33;;;;;;;12.30;3.50;;;;;;;6.89;72.45;101394.06;10500242;28;20311;-64
2022/01/15 12:43:38;;;;;;;11.40;3.47;;;;;;;6.91;71.96;101394.97;10480950;28;20222;-63
2022/01/15 12:48:45;;;;;;;14.23;3.43;;;;;;;6.94;71.21;101391.56;10485953;28;20305;-66
2022/01/15 12:53:50;;;;;;;11.10;3.67;;;;;;;6.72;70.99;101399.69;10457747;28;20657;-65
2022/01/15 12:58:54;;;;;;;11.33;3.03;;;;;;;6.73;71.03;101409.19;10459366;28;20577;-62
2022/01/15 13:04:00;;;;;;;14.87;5.00;;;;;;;6.31;72.68;101415.91;10459202;28;20688;-63
2022/01/15 13:09:03;;;;;;;14.20;3.90;;;;;;;5.78;74.34;101410.25;10470149;28;20678;-64
2022/01/15 13:14:07;;;;;;;9.00;3.00;;;;;;;5.67;75.36;101411.72;10500355;28;20234;-66
2022/01/15 13:19:12;;;;;;;10.57;3.73;;;;;;;5.57;75.11;101416.56;10462432;28;20710;-64
2022/01/15 13:24:15;;;;;;;15.23;4.27;;;;;;;5.28;77.40;101423.47;10499743;28;20208;-65
2022/01/15 13:29:22;;;;;;;10.07;3.07;;;;;;;5.03;76.46;101436.47;10500054;28;20188;-64
2022/01/15 13:34:32;;;;;;;11.30;3.23;;;;;;;4.90;77.35;101433.50;10473162;28;20623;-64
2022/01/15 13:39:36;;;;;;;9.70;3.00;;;;;;;4.82;77.40;101437.53;10458599;28;20772;-67
2022/01/15 13:44:40;;;;;;;12.37;3.70;;;;;;;4.42;79.78;101438.88;10478065;28;20192;-65
2022/01/15 13:55:08;;;;;;;13.40;3.40;;;;;;;4.18;80.90;101435.50;10499722;28;20219;-63
2022/01/15 14:00:14;;;;;;;10.27;3.60;;;;;;;4.26;81.26;101446.91;10499877;28;20259;-63
2022/01/15 14:05:20;;;;;;;13.10;3.77;;;;;;;4.27;81.38;101452.91;10501162;28;20281;-64
2022/01/15 14:10:25;;;;;;;17.03;4.03;;;;;;;4.18;81.90;101448.34;10507181;28;20307;-65
2022/01/15 14:15:32;;;;;;;10.47;3.97;;;;;;;4.02;83.17;101456.38;10506853;28;20212;-63
2022/01/15 14:25:56;;;;;;;10.70;3.50;;;;;;;3.75;85.30;101452.00;10504329;28;20236;-66
2022/01/15 14:30:59;;;;;;;11.17;3.27;;;;;;;3.65;85.88;101462.75;10506186;28;20251;-64
2022/01/15 14:36:05;;;;;;;10.73;3.40;;;;;;;3.49;86.87;101463.91;10506221;28;20357;-64
2022/01/15 14:41:09;;;;;;;14.60;3.90;;;;;;;3.21;90.00;101468.88;10506114;28;20219;-64
2022/01/15 14:46:12;;;;;;;12.93;3.93;;;;;;;3.08;91.33;101472.66;10505703;28;20251;-66
2022/01/15 14:51:17;;;;;;;12.60;3.87;;;;;;;2.88;92.92;101472.72;10505821;28;20229;-64
2022/01/15 14:56:21;;;;;;;14.80;4.07;;;;;;;2.82;94.75;101488.75;10505575;28;20295;-65
2022/01/15 15:01:26;;;;;;;14.13;4.07;;;;;;;2.98;93.68;101474.81;10505268;28;20242;-65
2022/01/15 15:06:31;;;;;;;9.83;4.43;;;;;;;2.82;94.79;101469.91;10505066;28;20318;-68
2022/01/15 15:11:38;;;;;;;12.53;4.43;;;;;;;2.73;96.27;101474.69;10505249;28;20232;-62
2022/01/15 15:16:42;;;;;;;21.27;5.20;;;;;;;2.70;96.46;101482.25;10504121;28;20216;-65
2022/01/15 15:21:46;;;;;;;14.77;4.50;;;;;;;2.65;97.04;101474.41;10503579;28;20295;-66
2022/01/15 15:26:50;;;;;;;12.80;4.30;;;;;;;2.60;98.18;101475.03;10502852;28;20244;-64
2022/01/15 15:31:53;;;;;;;16.00;4.70;;;;;;;2.40;100.00;101496.41;10503584;28;20234;-63
2022/01/15 15:36:57;;;;;;;17.70;5.00;;;;;;;2.26;100.00;101504.41;10504001;28;20299;-64
2022/01/15 15:42:01;;;;;;;12.93;4.23;;;;;;;2.32;100.00;101504.66;10503831;28;20557;-67
2022/01/15 15:47:06;;;;;;;18.43;4.97;;;;;;;2.38;100.00;101499.78;10503631;28;20212;-64
2022/01/15 15:52:11;;;;;;;12.57;4.47;;;;;;;2.33;100.00;101488.47;10503100;28;20556;-68
2022/01/15 15:57:15;;;;;;;28.67;8.13;;;;;;;2.19;100.00;101491.28;10503200;28;20655;-63
2022/01/15 16:02:19;;;;;;;19.53;4.97;;;;;;;2.11;100.00;101506.34;10503313;28;20302;-63
2022/01/15 16:07:27;;;;;;;13.03;4.77;;;;;;;2.06;100.00;101512.94;10502289;28;20562;-68
2022/01/15 16:12:30;;;;;;;19.53;5.50;;;;;;;1.95;100.00;101503.94;10502363;28;20575;-64
2022/01/15 16:17:34;;;;;;;21.33;6.27;;;;;;;2.06;100.00;101494.13;10502319;28;20695;-65
2022/01/15 16:22:39;;;;;;;11.93;5.30;;;;;;;1.99;100.00;101500.69;10501958;28;20191;-62
2022/01/15 16:27:43;;;;;;;19.67;6.40;;;;;;;1.87;100.00;101504.41;10501012;28;20188;-67
2022/01/15 16:32:47;;;;;;;18.83;6.90;;;;;;;1.76;100.00;101503.09;10501779;28;20642;-64
2022/01/15 16:37:52;;;;;;;19.73;7.10;;;;;;;1.86;100.00;101507.78;10501840;28;20709;-66
2022/01/15 16:42:55;;;;;;;20.90;6.73;;;;;;;1.99;100.00;101510.94;10501420;28;20192;-63
2022/01/15 16:47:58;;;;;;;18.70;7.53;;;;;;;1.99;100.00;101516.06;10501142;28;20633;-65
2022/01/15 16:53:02;;;;;;;22.87;8.33;;;;;;;1.90;100.00;101525.00;10501043;28;20646;-64
2022/01/15 16:58:06;;;;;;;26.77;7.67;;;;;;;1.86;100.00;101523.16;10500980;28;20522;-63
2022/01/15 17:03:09;;;;;;;19.40;8.40;;;;;;;1.91;100.00;101519.09;10500575;28;20275;-64
2022/01/15 17:08:14;;;;;;;20.10;6.10;;;;;;;2.02;100.00;101523.00;10500595;28;20232;-64
2022/01/15 17:13:17;;;;;;;18.10;7.47;;;;;;;1.99;100.00;101517.72;10500979;28;20219;-65
2022/01/15 17:18:20;;;;;;;15.90;7.10;;;;;;;1.94;100.00;101532.91;10500710;28;20526;-68
2022/01/15 17:23:28;;;;;;;20.77;7.80;;;;;;;2.08;100.00;101534.38;10500329;28;20701;-63
2022/01/15 17:28:31;;;;;;;21.47;7.17;;;;;;;2.10;100.00;101537.00;10500554;28;20192;-65
2022/01/15 17:33:34;;;;;;;15.03;6.90;;;;;;;2.02;100.00;101539.22;10500327;28;20695;-67
2022/01/15 17:38:39;;;;;;;19.07;7.00;;;;;;;2.09;100.00;101554.03;10501097;28;20188;-67
2022/01/15 17:43:42;;;;;;;23.23;7.53;;;;;;;2.13;100.00;101545.69;10508532;28;20631;-64
2022/01/15 17:48:45;;;;;;;21.03;8.87;;;;;;;2.17;100.00;101550.09;10508129;28;20267;-63
2022/01/15 17:53:50;;;;;;;23.70;9.13;;;;;;;2.22;100.00;101555.44;10507827;28;20212;-64
2022/01/15 17:58:53;;;;;;;25.17;8.50;;;;;;;2.28;100.00;101556.56;10507849;28;20200;-66
2022/01/15 18:03:57;;;;;;;20.90;8.37;;;;;;;2.31;100.00;101545.59;10507651;28;20287;-66
2022/01/15 18:09:01;;;;;;;18.00;8.20;;;;;;;2.38;100.00;101546.72;10507332;28;20232;-64
2022/01/15 18:14:08;;;;;;;26.00;9.47;;;;;;;2.25;100.00;101553.00;10507247;28;20299;-64
2022/01/15 18:19:12;;;;;;;22.17;8.87;;;;;;;1.93;100.00;101548.19;10507181;28;20226;-66
2022/01/15 18:24:18;;;;;;;22.83;9.40;;;;;;;1.95;100.00;101555.13;10506800;28;20634;-62
2022/01/15 18:29:22;;;;;;;27.07;9.80;;;;;;;1.89;100.00;101564.22;10506787;28;20195;-63
2022/01/15 18:34:26;;;;;;;24.20;9.30;;;;;;;1.91;100.00;101560.03;10506485;28;20317;-67
2022/01/15 18:39:30;;;;;;;23.13;9.87;;;;;;;1.91;100.00;101557.50;10506224;28;20202;-67
2022/01/15 18:44:34;;;;;;;26.10;10.60;;;;;;;1.72;100.00;101554.94;10505966;28;20278;-67
2022/01/15 18:49:37;;;;;;;27.40;10.77;;;;;;;1.73;100.00;101577.13;10505922;28;20629;-62
2022/01/15 18:54:41;;;;;;;31.33;13.90;;;;;;;1.63;100.00;101572.41;10505014;28;20216;-66
2022/01/15 18:59:45;;;;;;;28.27;12.77;;;;;;;1.81;100.00;101598.84;10506140;28;20286;-65
2022/01/15 19:04:48;;;;;;;35.23;12.10;;;;;;;1.70;100.00;101722.84;10505161;28;20580;-65
2022/01/15 19:09:53;;;;;;;25.70;11.90;;;;;;;1.59;100.00;101575.66;10505204;28;20549;-67
2022/01/15 19:14:57;;;;;;;27.70;11.90;;;;;;;1.55;100.00;101538.84;10504990;28;20308;-65
2022/01/15 19:20:00;;;;;;;26.10;10.63;;;;;;;1.74;100.00;101581.47;10504792;28;20271;-63
2022/01/15 19:25:06;;;;;;;26.43;9.93;;;;;;;1.78;100.00;101579.09;10504384;28;20202;-64
2022/01/15 19:30:14;;;;;;;24.73;9.97;;;;;;;1.73;100.00;101554.09;10504402;28;20261;-64
2022/01/15 19:35:18;;;;;;;23.50;10.20;;;;;;;1.88;100.00;101542.84;10504099;28;20307;-67
2022/01/15 19:40:24;;;;;;;22.97;10.40;;;;;;;1.84;100.00;101507.72;10504032;28;20295;-63
2022/01/15 19:45:29;;;;;;;27.20;10.83;;;;;;;1.75;100.00;101502.22;10491212;28;20653;-63
2022/01/15 19:50:32;;;;;;;28.60;11.07;;;;;;;1.85;100.00;101524.81;10477156;28;20214;-64
2022/01/15 19:55:37;;;;;;;24.40;11.60;;;;;;;1.74;100.00;101551.66;10502725;28;20234;-64
2022/01/15 20:00:41;;;;;;;30.63;13.43;;;;;;;1.64;100.00;101581.88;10496186;28;20221;-63
2022/01/15 20:05:45;;;;;;;30.93;13.80;;;;;;;1.77;100.00;101568.81;10461250;28;20320;-62
2022/01/15 20:10:50;;;;;;;32.50;12.87;;;;;;;1.75;100.00;101557.63;10488735;28;20234;-66
2022/01/15 20:15:53;;;;;;;29.90;12.87;;;;;;;1.54;100.00;101524.28;10501893;28;20649;-64
2022/01/15 20:20:58;;;;;;;26.03;13.13;;;;;;;1.58;100.00;101533.84;10498760;28;20223;-65
2022/01/15 20:26:03;;;;;;;59.55;32.60;;;;;;;1.50;100.00;101550.53;10466410;28;20434;-64
2022/01/15 20:31:06;;;;;;;30.10;14.40;;;;;;;1.41;100.00;101546.69;10485257;28;21085;-64
2022/01/15 20:36:09;;;;;;;38.50;16.17;;;;;;;1.36;100.00;101572.06;10478787;28;20220;-68
2022/01/15 20:41:14;;;;;;;30.00;14.53;;;;;;;1.46;100.00;101570.78;10488808;28;20242;-67
2022/01/15 20:46:18;;;;;;;36.30;15.40;;;;;;;1.37;100.00;101540.56;10477938;28;20230;-66
2022/01/15 20:51:21;;;;;;;34.20;15.27;;;;;;;1.28;100.00;101560.59;10500718;28;20526;-63
2022/01/15 20:56:26;;;;;;;28.63;14.97;;;;;;;1.22;100.00;101554.31;10500860;28;20241;-64
2022/01/15 21:01:29;;;;;;;37.47;15.27;;;;;;;1.23;100.00;101563.72;10499552;28;20222;-66
2022/01/15 21:06:32;;;;;;;36.97;15.40;;;;;;;1.36;100.00;101555.84;10479484;28;20250;-61
2022/01/15 21:11:37;;;;;;;36.63;16.00;;;;;;;1.21;100.00;101568.78;10467605;28;20214;-62
2022/01/15 21:16:40;;;;;;;30.90;14.83;;;;;;;1.47;100.00;101568.28;10468786;28;20600;-61
2022/01/15 21:21:43;;;;;;;27.87;14.23;;;;;;;1.57;100.00;101562.78;10500143;28;20226;-64
2022/01/15 21:26:48;;;;;;;31.33;14.73;;;;;;;1.30;100.00;101551.31;10498308;28;20219;-66
2022/01/15 21:31:51;;;;;;;27.63;13.67;;;;;;;1.34;100.00;101549.78;10484390;28;20218;-64
2022/01/15 21:36:54;;;;;;;36.53;16.23;;;;;;;1.16;100.00;101539.56;10477644;28;20224;-64
2022/01/15 21:41:59;;;;;;;34.47;14.40;;;;;;;1.03;100.00;101529.59;10489746;28;20217;-63
2022/01/15 21:47:02;;;;;;;34.77;14.17;;;;;;;1.26;100.00;101528.09;10458303;28;20223;-67
2022/01/15 21:52:06;;;;;;;34.33;14.67;;;;;;;1.33;100.00;101535.25;10458666;28;20216;-65
2022/01/15 21:57:11;;;;;;;33.93;15.83;;;;;;;1.21;100.00;101532.97;10458208;28;20224;-63
2022/01/15 22:02:14;;;;;;;33.50;16.67;;;;;;;1.42;100.00;101538.19;10485602;28;20716;-64
2022/01/15 22:07:20;;;;;;;34.37;16.60;;;;;;;1.29;100.00;101534.22;10499270;28;20726;-67
2022/01/15 22:12:32;;;;;;;35.23;16.00;;;;;;;1.30;100.00;101527.41;10499230;28;20220;-66
2022/01/15 22:17:36;;;;;;;37.20;15.17;;;;;;;1.36;100.00;101543.94;10493805;28;20299;-66
2022/01/15 22:22:39;;;;;;;37.27;16.47;;;;;;;1.38;100.00;101534.63;10467026;28;20216;-68
2022/01/15 22:27:44;;;;;;;34.90;14.90;;;;;;;1.29;100.00;101541.03;10473963;28;20666;-63
2022/01/15 22:32:47;;;;;;;35.37;16.70;;;;;;;1.35;100.00;101549.84;10487207;28;20231;-64
2022/01/15 22:37:50;;;;;;;33.57;15.37;;;;;;;1.45;100.00;101544.31;10473068;28;20564;-66
2022/01/15 22:42:56;;;;;;;43.40;15.27;;;;;;;1.43;100.00;101551.09;10495337;28;20304;-64
2022/01/15 22:48:00;;;;;;;39.40;17.20;;;;;;;1.44;100.00;101549.38;10467505;28;20229;-65
2022/01/15 22:53:03;;;;;;;43.60;16.67;;;;;;;1.50;100.00;101542.84;10472678;28;20230;-67
2022/01/15 22:58:07;;;;;;;34.83;16.47;;;;;;;1.42;100.00;101545.88;10496952;28;20212;-63
2022/01/15 23:03:11;;;;;;;45.33;15.63;;;;;;;1.52;100.00;101546.34;10479576;28;20208;-63
2022/01/15 23:08:15;;;;;;;35.07;15.77;;;;;;;1.49;100.00;101540.22;10494112;28;20255;-64
2022/01/15 23:13:29;;;;;;;40.63;18.20;;;;;;;1.57;100.00;101536.34;10463348;28;20231;-64
2022/01/15 23:18:33;;;;;;;43.40;19.13;;;;;;;1.58;100.00;101522.75;10475785;28;20223;-65
2022/01/15 23:23:37;;;;;;;47.80;21.37;;;;;;;1.57;100.00;101544.03;10497750;28;20207;-64
2022/01/15 23:28:41;;;;;;;45.37;20.00;;;;;;;1.39;100.00;101535.50;10484004;28;20283;-63
2022/01/15 23:33:45;;;;;;;54.00;21.73;;;;;;;1.14;100.00;101546.28;10504145;28;20546;-63
2022/01/15 23:38:48;;;;;;;46.20;20.10;;;;;;;0.93;100.00;101535.09;10503342;28;20200;-63
2022/01/15 23:43:57;;;;;;;52.20;20.37;;;;;;;0.92;100.00;101528.22;10503988;28;20212;-65
2022/01/15 23:49:00;;;;;;;52.57;22.37;;;;;;;0.80;100.00;101530.19;10503589;28;20287;-65